Time;durP1;ratioP1;P1;durP2;ratioP2;P2;SDS_P1;SDS_P2;PMS_P1;PMS_P2;Temp;Humidity;BMP_temperature;BMP_pressure;BME280_temperature;BME280_humidity;BME280_pressure;Samples;Min_cycle;Max_cycle;Signal;HPM_P1;HPM_P2
2022/05/15 00:01:13;;;;;;;28.40;6.00;;;13.70;99.90;;;;;;5062884;27;39434;-78
2022/05/15 00:03:40;;;;;;;26.52;6.88;;;13.70;99.90;;;;;;5063515;28;38791;-78
2022/05/15 00:06:06;;;;;;;25.38;6.05;;;13.60;99.90;;;;;;5076562;28;38101;-77
2022/05/15 00:08:35;;;;;;;21.75;5.47;;;13.60;99.90;;;;;;5053364;28;38485;-77
2022/05/15 00:11:02;;;;;;;27.63;6.75;;;13.70;99.90;;;;;;5060092;28;38514;-78
2022/05/15 00:13:30;;;;;;;25.55;6.10;;;13.60;99.90;;;;;;5081502;27;47251;-77
2022/05/15 00:15:56;;;;;;;25.98;6.50;;;13.60;99.90;;;;;;5079018;27;39003;-77
2022/05/15 00:18:24;;;;;;;28.35;6.53;;;13.60;99.90;;;;;;5074935;28;39822;-78
2022/05/15 00:20:51;;;;;;;29.58;6.35;;;13.60;99.90;;;;;;5067077;28;38672;-77
2022/05/15 00:23:18;;;;;;;31.08;6.57;;;13.70;99.90;;;;;;5081533;27;38731;-77
2022/05/15 00:25:45;;;;;;;26.90;6.03;;;13.70;99.90;;;;;;5081710;28;35784;-77
2022/05/15 00:28:13;;;;;;;27.17;6.40;;;13.70;99.90;;;;;;5078380;28;38554;-77
2022/05/15 00:30:40;;;;;;;28.88;6.18;;;13.60;99.90;;;;;;5078793;27;37625;-78
2022/05/15 00:33:06;;;;;;;26.15;5.95;;;13.60;99.90;;;;;;5078698;28;40790;-77
2022/05/15 00:35:35;;;;;;;24.08;6.40;;;13.60;99.90;;;;;;5078063;27;36260;-77
2022/05/15 00:38:07;;;;;;;25.55;5.85;;;13.60;99.90;;;;;;5074406;27;38634;-77
2022/05/15 00:40:38;;;;;;;21.83;5.45;;;13.50;99.90;;;;;;5060544;28;38915;-78
2022/05/15 00:43:34;;;;;;;22.45;5.47;;;13.50;99.90;;;;;;5066698;27;39958;-77
2022/05/15 00:46:01;;;;;;;27.85;6.50;;;13.50;99.90;;;;;;5063405;28;37292;-78
2022/05/15 00:48:27;;;;;;;24.13;6.82;;;13.50;99.90;;;;;;5089385;27;48455;-78
2022/05/15 00:50:54;;;;;;;24.98;6.13;;;13.50;99.90;;;;;;5083962;27;38912;-78
2022/05/15 00:53:20;;;;;;;20.33;5.85;;;13.40;99.90;;;;;;5060375;28;39255;-77
2022/05/15 00:55:50;;;;;;;23.85;6.40;;;13.40;99.90;;;;;;5076616;28;36615;-77
2022/05/15 00:58:28;;;;;;;23.92;6.07;;;13.40;99.90;;;;;;5071117;27;40012;-77
2022/05/15 01:00:55;;;;;;;22.13;5.45;;;13.30;99.90;;;;;;5064379;27;38928;-77
2022/05/15 01:03:21;;;;;;;29.45;5.85;;;13.30;99.90;;;;;;5062957;28;38901;-78
2022/05/15 01:05:53;;;;;;;25.05;5.65;;;13.20;99.90;;;;;;5064000;28;36564;-78
2022/05/15 01:08:21;;;;;;;20.58;5.53;;;13.20;99.90;;;;;;5061446;28;37236;-77
2022/05/15 01:10:55;;;;;;;23.98;6.28;;;13.20;99.90;;;;;;5071225;28;39079;-77
2022/05/15 01:13:24;;;;;;;24.95;5.88;;;13.10;99.90;;;;;;5071960;27;38681;-77
2022/05/15 01:15:50;;;;;;;32.55;7.40;;;13.10;99.90;;;;;;5073170;28;36766;-78
2022/05/15 01:18:28;;;;;;;22.95;6.05;;;13.10;99.90;;;;;;5076347;28;40559;-77
2022/05/15 01:20:56;;;;;;;24.85;6.10;;;13.00;99.90;;;;;;5071819;28;39117;-77
2022/05/15 01:23:22;;;;;;;23.33;6.60;;;13.10;99.90;;;;;;5077003;28;39164;-77
2022/05/15 01:25:48;;;;;;;22.98;6.22;;;13.00;99.90;;;;;;5078570;28;39070;-77
2022/05/15 01:28:22;;;;;;;28.65;6.72;;;13.00;99.90;;;;;;5070065;27;38774;-77
2022/05/15 01:30:53;;;;;;;25.10;6.03;;;12.90;99.90;;;;;;5079671;28;38710;-77
2022/05/15 01:33:19;;;;;;;25.98;6.28;;;13.00;99.90;;;;;;5068557;28;37765;-77
2022/05/15 01:35:45;;;;;;;25.27;6.22;;;12.90;99.90;;;;;;5089407;27;36985;-77
2022/05/15 01:38:12;;;;;;;29.10;6.28;;;12.90;99.90;;;;;;5059479;28;37068;-77
2022/05/15 01:40:40;;;;;;;28.02;6.88;;;12.80;99.90;;;;;;5062703;28;38129;-77
2022/05/15 01:43:07;;;;;;;22.25;6.15;;;12.80;99.90;;;;;;5079123;27;36961;-77
2022/05/15 01:45:34;;;;;;;23.60;6.65;;;12.80;99.90;;;;;;5070067;28;35517;-78
2022/05/15 01:48:00;;;;;;;32.50;7.40;;;12.80;99.90;;;;;;5064795;28;38580;-77
2022/05/15 01:50:27;;;;;;;30.75;7.28;;;12.70;99.90;;;;;;5066182;27;38206;-76
2022/05/15 01:52:53;;;;;;;24.75;6.35;;;12.70;99.90;;;;;;5071716;28;37799;-77
2022/05/15 01:55:19;;;;;;;27.17;6.40;;;12.70;99.90;;;;;;5064480;28;37171;-78
2022/05/15 01:57:45;;;;;;;29.50;6.10;;;12.70;99.90;;;;;;5087278;27;38888;-77
2022/05/15 02:00:19;;;;;;;25.05;6.13;;;12.70;99.90;;;;;;5055134;28;38388;-77
2022/05/15 02:02:46;;;;;;;22.52;6.18;;;12.70;99.90;;;;;;5066841;28;37629;-77
2022/05/15 02:05:13;;;;;;;25.95;6.05;;;12.70;99.90;;;;;;5074007;28;36229;-77
2022/05/15 02:07:39;;;;;;;20.88;5.07;;;12.60;99.90;;;;;;5064736;28;37520;-77
2022/05/15 02:10:06;;;;;;;29.23;6.20;;;12.50;99.90;;;;;;5084258;27;37392;-77
2022/05/15 02:12:32;;;;;;;24.08;6.38;;;12.50;99.90;;;;;;5086533;28;37002;-77
2022/05/15 02:14:59;;;;;;;33.13;6.45;;;12.50;99.90;;;;;;5055801;28;36023;-78
2022/05/15 02:17:25;;;;;;;19.13;5.93;;;12.50;99.90;;;;;;5054148;28;38778;-78
2022/05/15 02:19:51;;;;;;;27.65;6.75;;;12.40;99.90;;;;;;5088884;27;37483;-79
2022/05/15 02:22:17;;;;;;;21.80;6.28;;;12.40;99.90;;;;;;5064874;28;37518;-77
2022/05/15 02:24:43;;;;;;;24.23;6.38;;;12.40;99.90;;;;;;5071313;28;35156;-77
2022/05/15 02:27:09;;;;;;;23.73;6.45;;;12.40;99.90;;;;;;5071476;28;39721;-77
2022/05/15 02:29:35;;;;;;;25.33;7.28;;;12.40;99.90;;;;;;5123416;27;38695;-77
2022/05/15 02:32:01;;;;;;;31.35;7.82;;;12.30;99.90;;;;;;5082284;28;37060;-78
2022/05/15 02:34:27;;;;;;;26.70;6.63;;;12.30;99.90;;;;;;5086169;27;46782;-78
2022/05/15 02:36:53;;;;;;;25.42;6.93;;;12.30;99.90;;;;;;5072555;28;39313;-77
2022/05/15 02:39:20;;;;;;;26.77;6.38;;;12.20;99.90;;;;;;5072496;27;38690;-77
2022/05/15 02:41:46;;;;;;;25.98;6.85;;;12.20;99.90;;;;;;5083229;27;38943;-78
2022/05/15 02:44:12;;;;;;;26.77;7.00;;;12.10;99.90;;;;;;5079657;28;37245;-77
2022/05/15 02:46:39;;;;;;;26.50;6.53;;;12.10;99.90;;;;;;5080915;28;41764;-77
2022/05/15 02:51:49;;;;;;;28.52;6.05;;;12.10;99.90;;;;;;5070970;27;39180;-77
2022/05/15 02:54:16;;;;;;;22.88;6.80;;;12.10;99.90;;;;;;5053701;27;35893;-77
2022/05/15 02:56:42;;;;;;;23.80;7.50;;;12.10;99.90;;;;;;5092966;27;39241;-77
2022/05/15 02:59:08;;;;;;;23.40;6.93;;;12.10;99.90;;;;;;5055673;28;38435;-77
2022/05/15 03:01:35;;;;;;;25.73;7.38;;;12.00;99.90;;;;;;5058734;28;38257;-77
2022/05/15 03:04:04;;;;;;;27.80;6.93;;;12.00;99.90;;;;;;5052799;28;37523;-77
2022/05/15 03:06:31;;;;;;;25.52;6.85;;;11.90;99.90;;;;;;5056499;28;45913;-77
2022/05/15 03:08:57;;;;;;;29.73;7.82;;;11.90;99.90;;;;;;5066848;28;36777;-77
2022/05/15 03:11:25;;;;;;;26.15;6.78;;;11.90;99.90;;;;;;5053718;28;37715;-78
2022/05/15 03:13:51;;;;;;;26.13;6.80;;;11.80;99.90;;;;;;5070729;28;37872;-78
2022/05/15 03:16:18;;;;;;;24.10;7.72;;;11.80;99.90;;;;;;5082578;28;39036;-78
2022/05/15 03:18:47;;;;;;;23.73;6.55;;;11.80;99.90;;;;;;5083677;28;37326;-77
2022/05/15 03:21:28;;;;;;;24.83;7.03;;;11.80;99.90;;;;;;5083661;28;38963;-77
2022/05/15 03:24:08;;;;;;;26.27;6.88;;;11.70;99.90;;;;;;5087413;28;35720;-78
2022/05/15 03:26:40;;;;;;;22.67;6.90;;;11.70;99.90;;;;;;5057289;28;47114;-78
2022/05/15 03:29:07;;;;;;;32.70;7.32;;;11.70;99.90;;;;;;5063569;28;38377;-77
2022/05/15 03:31:39;;;;;;;26.95;7.45;;;11.70;99.90;;;;;;5063133;28;37116;-77
2022/05/15 03:34:14;;;;;;;25.58;7.30;;;11.60;99.90;;;;;;5064855;27;36368;-77
2022/05/15 03:36:41;;;;;;;27.35;7.63;;;11.60;99.90;;;;;;5061511;28;39317;-76
2022/05/15 03:39:09;;;;;;;28.90;8.15;;;11.60;99.90;;;;;;5066804;27;38618;-77
2022/05/15 03:41:37;;;;;;;25.88;7.05;;;11.60;99.90;;;;;;5063266;28;36780;-77
2022/05/15 03:44:04;;;;;;;26.70;8.07;;;11.50;99.90;;;;;;5061329;27;36048;-78
2022/05/15 03:46:30;;;;;;;30.58;7.38;;;11.50;99.90;;;;;;5059884;28;39641;-77
2022/05/15 03:48:57;;;;;;;30.17;7.32;;;11.50;99.90;;;;;;5071827;28;39468;-78
2022/05/15 03:51:24;;;;;;;31.40;7.80;;;11.50;99.90;;;;;;5071256;28;38254;-77
2022/05/15 03:53:50;;;;;;;33.08;7.63;;;11.50;99.90;;;;;;5101306;27;35985;-77
2022/05/15 03:56:18;;;;;;;23.45;6.93;;;11.50;99.90;;;;;;5094832;27;39974;-77
2022/05/15 03:58:44;;;;;;;24.20;7.07;;;11.40;99.90;;;;;;5063089;27;39373;-77
2022/05/15 04:01:10;;;;;;;27.02;8.07;;;11.50;99.90;;;;;;5067540;27;38293;-77
2022/05/15 04:03:36;;;;;;;23.08;7.55;;;11.50;99.90;;;;;;5096829;27;39527;-77
2022/05/15 04:06:02;;;;;;;27.63;7.82;;;11.50;99.90;;;;;;5065828;28;38863;-77
2022/05/15 04:08:30;;;;;;;25.42;7.20;;;11.50;99.90;;;;;;5103111;27;37695;-77
2022/05/15 04:10:56;;;;;;;31.33;7.43;;;11.50;99.90;;;;;;5070267;28;37245;-77
2022/05/15 04:13:23;;;;;;;23.67;7.90;;;11.40;99.90;;;;;;5063583;27;38132;-78
2022/05/15 04:15:50;;;;;;;25.65;7.40;;;11.50;99.90;;;;;;5066365;27;39432;-77
2022/05/15 04:18:16;;;;;;;25.27;7.05;;;11.40;99.90;;;;;;5061673;27;37932;-78
2022/05/15 04:20:42;;;;;;;32.17;7.53;;;11.40;99.90;;;;;;5066138;27;38425;-77
2022/05/15 04:23:09;;;;;;;23.63;7.05;;;11.40;99.90;;;;;;5094627;27;38182;-77
2022/05/15 04:25:35;;;;;;;30.00;7.68;;;11.50;99.90;;;;;;5066626;27;39809;-77
2022/05/15 04:28:01;;;;;;;20.98;6.65;;;11.50;99.90;;;;;;5076747;28;40088;-78
2022/05/15 04:30:27;;;;;;;25.85;6.63;;;11.50;99.90;;;;;;5080893;28;46616;-77
2022/05/15 04:32:54;;;;;;;24.55;6.85;;;11.50;99.90;;;;;;5078428;28;37646;-77
2022/05/15 04:35:21;;;;;;;21.55;6.82;;;11.50;99.90;;;;;;5079665;28;40364;-78
2022/05/15 04:37:50;;;;;;;24.15;6.55;;;11.60;99.90;;;;;;5076463;28;39633;-78
2022/05/15 04:40:17;;;;;;;28.98;7.25;;;11.60;99.90;;;;;;5079345;28;38387;-77
2022/05/15 04:42:43;;;;;;;31.10;8.35;;;11.60;99.90;;;;;;5085151;27;37105;-77
2022/05/15 04:45:10;;;;;;;30.25;7.35;;;11.60;99.90;;;;;;5079308;28;37757;-77
2022/05/15 04:47:36;;;;;;;25.42;8.20;;;11.70;99.90;;;;;;5090481;28;38645;-77
2022/05/15 04:50:03;;;;;;;23.90;7.50;;;11.70;99.90;;;;;;5079507;28;38316;-77
2022/05/15 04:52:29;;;;;;;24.90;7.30;;;11.70;99.90;;;;;;5085996;28;37528;-77
2022/05/15 04:54:55;;;;;;;26.90;7.70;;;11.80;99.90;;;;;;5075615;28;38795;-77
2022/05/15 04:57:22;;;;;;;28.38;6.75;;;11.90;99.90;;;;;;5087660;28;41163;-78
2022/05/15 04:59:48;;;;;;;25.95;7.82;;;11.90;99.90;;;;;;5072269;27;37317;-78
2022/05/15 05:02:14;;;;;;;29.27;6.80;;;12.00;99.90;;;;;;5075971;28;35955;-77
2022/05/15 05:04:40;;;;;;;23.45;7.28;;;12.10;99.90;;;;;;5077827;27;39523;-78
2022/05/15 05:07:06;;;;;;;25.63;6.57;;;12.10;99.90;;;;;;5088513;27;39173;-77
2022/05/15 05:09:32;;;;;;;24.70;6.93;;;12.10;99.90;;;;;;5082425;27;38222;-78
2022/05/15 05:11:58;;;;;;;25.33;7.55;;;12.20;99.90;;;;;;5084177;28;38242;-78
2022/05/15 05:14:24;;;;;;;24.02;6.75;;;12.30;99.90;;;;;;5076973;27;40632;-78
2022/05/15 05:16:50;;;;;;;23.45;6.32;;;12.40;99.90;;;;;;5077820;28;37444;-78
2022/05/15 05:19:16;;;;;;;21.90;6.53;;;12.50;99.90;;;;;;5083879;28;36984;-77
2022/05/15 05:21:42;;;;;;;27.65;7.53;;;12.70;99.90;;;;;;5082296;27;37351;-77
2022/05/15 05:24:08;;;;;;;32.78;7.07;;;13.00;99.90;;;;;;5077245;27;38631;-78
2022/05/15 05:26:34;;;;;;;31.92;7.93;;;13.20;99.90;;;;;;5072795;28;37811;-78
2022/05/15 05:29:01;;;;;;;29.55;8.38;;;13.40;99.90;;;;;;5068350;28;37846;-78
2022/05/15 05:31:27;;;;;;;23.80;6.43;;;13.60;99.90;;;;;;5088178;27;38622;-78
2022/05/15 05:33:53;;;;;;;25.80;7.53;;;13.70;99.90;;;;;;5070107;28;38584;-77
2022/05/15 05:36:19;;;;;;;25.40;7.30;;;13.80;99.90;;;;;;5061896;28;39711;-78
2022/05/15 05:38:45;;;;;;;29.38;7.40;;;14.00;99.90;;;;;;5066850;28;39542;-78
2022/05/15 05:41:12;;;;;;;25.08;6.97;;;14.10;99.90;;;;;;5069360;28;37469;-78
2022/05/15 05:43:38;;;;;;;22.33;6.50;;;14.10;99.90;;;;;;5083254;27;39724;-78
2022/05/15 05:46:05;;;;;;;26.88;7.25;;;14.10;99.90;;;;;;5073424;27;38303;-77
2022/05/15 05:48:31;;;;;;;22.75;6.20;;;14.20;99.90;;;;;;5072138;27;37852;-78
2022/05/15 05:50:58;;;;;;;20.98;6.43;;;14.40;99.90;;;;;;5076247;28;35780;-78
2022/05/15 05:53:24;;;;;;;22.60;6.80;;;14.40;99.90;;;;;;5076633;27;38741;-78
2022/05/15 05:55:51;;;;;;;28.13;5.88;;;14.50;99.90;;;;;;5068525;28;39832;-78
2022/05/15 05:58:17;;;;;;;24.52;6.95;;;14.60;99.90;;;;;;5067426;28;38100;-77
2022/05/15 06:00:43;;;;;;;24.05;7.20;;;14.70;99.90;;;;;;5063877;28;37522;-78
2022/05/15 06:05:55;;;;;;;20.10;5.80;;;15.00;99.90;;;;;;5070388;27;39212;-78
2022/05/15 06:08:21;;;;;;;21.65;6.95;;;15.20;99.90;;;;;;5070145;28;38877;-79
2022/05/15 06:10:48;;;;;;;24.63;7.07;;;15.30;99.90;;;;;;5069164;28;37756;-79
2022/05/15 06:13:14;;;;;;;20.45;5.82;;;15.40;99.90;;;;;;5070674;28;38483;-78
2022/05/15 06:15:40;;;;;;;26.67;7.22;;;15.50;99.90;;;;;;5068208;28;38679;-79
2022/05/15 06:18:08;;;;;;;25.13;6.60;;;15.80;99.90;;;;;;5066651;27;38999;-76
2022/05/15 06:20:34;;;;;;;22.80;6.80;;;15.90;99.90;;;;;;5075101;28;37246;-77
2022/05/15 06:23:00;;;;;;;23.15;6.15;;;16.10;99.90;;;;;;5073628;28;39119;-79
2022/05/15 06:25:27;;;;;;;20.83;7.05;;;16.40;99.90;;;;;;5056485;28;46945;-77
2022/05/15 06:27:53;;;;;;;23.77;6.78;;;16.60;99.90;;;;;;5050095;28;39255;-78
2022/05/15 06:30:20;;;;;;;27.52;6.90;;;16.80;99.90;;;;;;5040573;28;38320;-77
2022/05/15 06:32:46;;;;;;;20.27;6.75;;;16.70;99.90;;;;;;5043032;28;38151;-77
2022/05/15 06:35:14;;;;;;;22.27;7.20;;;16.90;99.90;;;;;;5044126;28;37255;-77
2022/05/15 06:37:41;;;;;;;26.45;7.13;;;17.30;99.90;;;;;;5045173;28;37127;-77
2022/05/15 06:40:10;;;;;;;20.85;7.03;;;17.30;99.90;;;;;;5043015;27;35889;-76
2022/05/15 06:42:36;;;;;;;21.33;7.07;;;17.40;99.90;;;;;;5039309;28;37637;-77
2022/05/15 06:45:04;;;;;;;24.73;6.93;;;17.70;99.90;;;;;;5045527;27;38584;-76
2022/05/15 06:47:30;;;;;;;21.67;7.03;;;17.60;99.90;;;;;;5061906;27;37948;-78
2022/05/15 06:49:58;;;;;;;24.30;6.47;;;17.40;99.90;;;;;;5068910;27;36576;-78
2022/05/15 06:52:25;;;;;;;27.20;7.28;;;17.40;99.90;;;;;;5059126;27;39758;-77
2022/05/15 06:54:52;;;;;;;21.98;6.60;;;17.70;99.90;;;;;;5055010;27;38397;-76
2022/05/15 06:57:31;;;;;;;21.15;6.45;;;17.80;99.90;;;;;;5074501;28;36988;-76
2022/05/15 06:59:58;;;;;;;19.67;6.60;;;17.90;99.90;;;;;;5054710;28;37135;-76
2022/05/15 07:02:26;;;;;;;22.88;7.78;;;18.10;99.90;;;;;;5048400;28;39377;-76
2022/05/15 07:04:52;;;;;;;22.80;7.07;;;18.40;99.90;;;;;;5049479;27;37814;-78
2022/05/15 07:07:19;;;;;;;22.52;6.43;;;18.80;99.90;;;;;;5047807;28;38944;-76
2022/05/15 07:09:46;;;;;;;21.50;6.20;;;18.90;99.90;;;;;;5050872;27;38546;-77
2022/05/15 07:12:12;;;;;;;24.63;7.95;;;18.90;99.90;;;;;;5048780;27;39191;-76
2022/05/15 07:14:39;;;;;;;23.10;7.13;;;19.20;99.90;;;;;;5056273;27;39397;-76
2022/05/15 07:17:05;;;;;;;19.77;6.13;;;19.40;99.90;;;;;;5059215;27;38968;-78
2022/05/15 07:19:32;;;;;;;20.77;6.60;;;19.60;99.90;;;;;;5065716;27;36832;-78
2022/05/15 07:21:58;;;;;;;21.67;6.18;;;19.60;99.90;;;;;;5060960;27;40053;-76
2022/05/15 07:24:25;;;;;;;20.65;6.80;;;19.90;99.90;;;;;;5062314;27;39606;-80
2022/05/15 07:26:52;;;;;;;24.75;6.60;;;20.00;99.90;;;;;;5067747;28;37551;-79
2022/05/15 07:29:20;;;;;;;24.92;6.88;;;20.10;99.90;;;;;;5074367;27;37136;-78
2022/05/15 07:31:51;;;;;;;20.48;5.80;;;20.10;99.90;;;;;;5058764;28;38160;-81
2022/05/15 07:34:18;;;;;;;25.45;7.75;;;20.40;99.90;;;;;;5057337;27;37531;-80
2022/05/15 07:36:44;;;;;;;24.02;7.50;;;20.50;99.90;;;;;;5053134;28;38935;-80
2022/05/15 07:39:11;;;;;;;17.33;7.38;;;20.30;99.90;;;;;;5077459;27;38072;-81
2022/05/15 07:41:37;;;;;;;23.17;6.25;;;19.90;99.90;;;;;;5073724;28;38630;-80
2022/05/15 07:44:03;;;;;;;21.90;7.00;;;20.20;99.90;;;;;;5078675;28;38730;-80
2022/05/15 07:46:29;;;;;;;22.55;7.43;;;20.00;99.90;;;;;;5070035;28;38563;-81
2022/05/15 07:48:55;;;;;;;19.90;7.03;;;20.30;99.90;;;;;;5055750;27;37154;-81
2022/05/15 07:51:22;;;;;;;21.70;6.68;;;20.70;99.90;;;;;;5093078;27;39725;-81
2022/05/15 07:53:48;;;;;;;24.73;7.13;;;20.80;99.90;;;;;;5055469;27;38452;-81
2022/05/15 07:56:14;;;;;;;15.93;6.22;;;20.60;99.90;;;;;;5083795;27;39128;-79
2022/05/15 07:58:41;;;;;;;20.40;7.05;;;20.50;99.90;;;;;;5082394;27;37956;-82
2022/05/15 08:01:08;;;;;;;22.15;7.28;;;20.80;99.90;;;;;;5060134;27;39925;-81
2022/05/15 08:03:43;;;;;;;21.10;7.05;;;20.90;99.90;;;;;;5050492;28;38894;-79
2022/05/15 08:08:57;;;;;;;21.10;6.57;;;21.40;99.90;;;;;;5051903;27;37491;-80
2022/05/15 08:11:27;;;;;;;20.15;6.38;;;21.60;99.90;;;;;;5085928;27;39757;-80
2022/05/15 08:13:55;;;;;;;20.35;7.20;;;21.70;99.90;;;;;;5054567;28;39482;-81
2022/05/15 08:16:22;;;;;;;17.00;6.32;;;22.00;99.90;;;;;;5065707;27;37805;-80
2022/05/15 08:24:19;;;;;;;16.95;6.22;;;22.20;99.90;;;;;;5054317;27;39878;-79
2022/05/15 08:26:45;;;;;;;18.02;7.00;;;22.40;99.90;;;;;;5054659;28;39579;-79
2022/05/15 08:29:12;;;;;;;14.55;6.03;;;22.90;99.90;;;;;;5040899;27;38830;-80
2022/05/15 08:31:39;;;;;;;22.65;6.40;;;22.80;99.90;;;;;;5055647;27;39300;-79
2022/05/15 08:34:06;;;;;;;17.40;6.57;;;23.20;99.90;;;;;;5056008;27;38648;-79
2022/05/15 08:36:32;;;;;;;16.30;5.78;;;22.90;99.90;;;;;;5071285;27;37816;-80
2022/05/15 08:38:59;;;;;;;15.30;5.55;;;23.20;99.90;;;;;;5074954;28;37007;-81
2022/05/15 08:41:34;;;;;;;17.00;6.30;;;23.40;99.90;;;;;;5092342;27;39828;-80
2022/05/15 08:44:29;;;;;;;20.75;6.30;;;23.00;99.90;;;;;;5107792;27;38503;-80
2022/05/15 08:47:17;;;;;;;20.90;7.18;;;22.70;99.90;;;;;;5072596;28;47242;-81
2022/05/15 08:49:52;;;;;;;12.27;5.20;;;22.70;99.90;;;;;;5063056;28;47047;-80
2022/05/15 08:52:23;;;;;;;15.85;5.72;;;22.80;99.90;;;;;;5056704;28;38077;-80
2022/05/15 08:55:28;;;;;;;20.53;6.03;;;23.10;99.90;;;;;;5087904;27;38966;-80
2022/05/15 08:58:05;;;;;;;14.65;5.82;;;23.40;99.90;;;;;;5049295;28;47570;-79
2022/05/15 09:00:44;;;;;;;17.65;6.80;;;23.30;99.90;;;;;;5065002;28;47444;-79
2022/05/15 09:03:18;;;;;;;16.30;4.97;;;23.50;99.90;;;;;;5049247;27;40038;-79
2022/05/15 09:06:03;;;;;;;12.85;5.30;;;23.30;99.90;;;;;;5075511;28;38764;-81
2022/05/15 09:08:48;;;;;;;16.17;5.40;;;23.40;99.90;;;;;;5088554;27;47814;-80
2022/05/15 09:11:22;;;;;;;14.57;4.53;;;23.20;99.90;;;;;;5079884;28;38282;-81
2022/05/15 09:14:00;;;;;;;11.68;4.53;;;23.60;99.90;;;;;;5077150;28;38639;-83
2022/05/15 09:16:27;;;;;;;9.98;4.70;;;23.80;99.90;;;;;;5050567;28;40526;-79
2022/05/15 09:19:06;;;;;;;13.43;4.55;;;23.90;99.90;;;;;;5049635;28;38381;-79
2022/05/15 09:21:33;;;;;;;13.07;5.00;;;23.80;99.90;;;;;;5047558;28;47483;-79
2022/05/15 09:24:11;;;;;;;17.15;5.18;;;23.60;99.90;;;;;;5071496;28;37360;-80
2022/05/15 09:26:47;;;;;;;14.63;5.03;;;23.60;99.90;;;;;;5072673;28;48827;-78
2022/05/15 09:29:21;;;;;;;17.42;5.63;;;23.40;99.90;;;;;;5074621;27;35861;-80
2022/05/15 09:31:48;;;;;;;13.93;5.32;;;23.50;99.90;;;;;;5081922;28;37379;-80
2022/05/15 09:34:26;;;;;;;17.70;5.80;;;23.40;99.90;;;;;;5081045;27;39213;-80
2022/05/15 09:38:26;;;;;;;13.27;5.68;;;23.30;99.90;;;;;;5072459;28;37565;-83
2022/05/15 09:39:44;;;;;;;16.63;5.60;;;23.90;99.90;;;;;;5078608;27;48468;-79
2022/05/15 09:45:07;;;;;;;12.93;5.65;;;24.30;99.90;;;;;;5081834;28;40834;-81
2022/05/15 09:47:37;;;;;;;8.98;5.20;;;24.30;99.90;;;;;;5072500;28;48447;-79
2022/05/15 09:50:08;;;;;;;16.83;5.25;;;24.50;99.90;;;;;;5076583;28;37716;-79
2022/05/15 09:52:38;;;;;;;13.75;5.13;;;24.70;99.90;;;;;;5076240;27;37621;-79
2022/05/15 09:55:20;;;;;;;13.13;5.78;;;25.00;99.90;;;;;;5077161;27;37000;-79
2022/05/15 09:58:05;;;;;;;14.45;5.85;;;25.10;99.90;;;;;;5069395;28;37314;-86
2022/05/15 10:00:34;;;;;;;18.98;6.25;;;24.70;99.90;;;;;;5071876;28;48442;-79
2022/05/15 10:03:16;;;;;;;13.55;6.22;;;24.40;99.90;;;;;;5075991;28;39233;-78
2022/05/15 10:05:42;;;;;;;15.55;5.47;;;24.60;99.90;;;;;;5082609;27;48584;-78
2022/05/15 10:08:22;;;;;;;14.75;5.70;;;24.70;99.90;;;;;;5069574;28;38382;-86
2022/05/15 10:11:00;;;;;;;14.88;5.13;;;24.70;99.90;;;;;;5074839;28;38103;-79
2022/05/15 10:13:37;;;;;;;13.68;5.10;;;24.60;99.90;;;;;;5075162;28;37919;-79
2022/05/15 10:16:16;;;;;;;13.32;4.88;;;24.60;99.90;;;;;;5078708;28;38934;-81
2022/05/15 10:18:54;;;;;;;14.23;4.97;;;24.80;99.90;;;;;;5074975;28;38106;-79
2022/05/15 10:21:27;;;;;;;12.52;4.93;;;25.10;99.90;;;;;;5078435;27;38759;-79
2022/05/15 10:24:01;;;;;;;17.77;6.00;;;25.20;99.90;;;;;;5076094;28;37115;-79
2022/05/15 10:26:51;;;;;;;13.85;5.15;;;25.10;99.90;;;;;;5083971;28;47229;-79
2022/05/15 10:29:49;;;;;;;13.52;4.88;;;25.00;99.90;;;;;;5053090;28;40378;-79
2022/05/15 10:32:42;;;;;;;8.68;4.30;;;25.30;99.90;;;;;;5072146;28;38305;-80
2022/05/15 10:35:13;;;;;;;13.38;5.45;;;25.60;99.90;;;;;;5070168;28;37203;-79
2022/05/15 10:38:25;;;;;;;12.82;4.82;;;25.90;99.90;;;;;;5067812;28;39568;-80
2022/05/15 10:40:56;;;;;;;12.15;4.65;;;25.40;99.90;;;;;;5072598;28;48481;-80
2022/05/15 10:43:28;;;;;;;15.25;5.10;;;25.30;99.90;;;;;;5078121;28;39497;-81
2022/05/15 10:46:22;;;;;;;17.67;5.97;;;25.50;99.90;;;;;;5080830;28;38229;-79
2022/05/15 10:49:16;;;;;;;12.13;4.82;;;25.70;99.90;;;;;;5082178;28;47120;-79
2022/05/15 10:51:59;;;;;;;11.20;4.18;;;25.60;99.90;;;;;;5070105;28;47160;-79
2022/05/15 10:57:33;;;;;;;9.82;4.57;;;25.90;99.90;;;;;;5069796;27;38155;-78
2022/05/15 11:00:18;;;;;;;10.02;4.65;;;25.70;99.90;;;;;;5075368;28;39815;-79
2022/05/15 11:03:21;;;;;;;13.32;4.68;;;25.80;99.90;;;;;;5076050;27;48661;-78
2022/05/15 11:05:58;;;;;;;9.93;3.70;;;25.70;99.90;;;;;;5065087;28;47265;-81
2022/05/15 11:08:42;;;;;;;12.13;4.88;;;26.00;99.90;;;;;;5053978;28;37870;-79
2022/05/15 11:11:18;;;;;;;10.55;4.60;;;25.80;99.90;;;;;;5055687;28;41088;-80
2022/05/15 11:14:02;;;;;;;11.40;4.10;;;25.90;99.90;;;;;;5054085;27;38780;-79
2022/05/15 11:16:48;;;;;;;16.48;5.03;;;25.90;99.90;;;;;;5059318;27;48705;-79
2022/05/15 11:19:35;;;;;;;10.20;4.03;;;26.30;99.90;;;;;;5057247;27;39268;-79
2022/05/15 11:22:21;;;;;;;11.05;4.60;;;26.30;99.90;;;;;;5066648;28;40539;-78
2022/05/15 11:24:55;;;;;;;13.30;4.20;;;26.40;99.90;;;;;;5076718;27;38449;-79
2022/05/15 11:27:38;;;;;;;10.98;3.85;;;26.60;99.90;;;;;;5073320;27;37844;-79
2022/05/15 11:30:11;;;;;;;15.00;4.32;;;26.90;99.90;;;;;;5078166;27;38120;-79
2022/05/15 11:32:58;;;;;;;11.93;4.10;;;26.80;99.90;;;;;;5086601;27;40715;-79
2022/05/15 11:35:27;;;;;;;13.32;4.15;;;27.00;99.90;;;;;;5076735;27;38218;-78
2022/05/15 11:37:56;;;;;;;10.57;3.55;;;26.80;99.90;;;;;;5062299;28;38630;-80
2022/05/15 11:40:44;;;;;;;13.73;4.65;;;27.10;99.90;;;;;;5074050;28;37399;-77
2022/05/15 11:43:31;;;;;;;16.58;4.53;;;26.60;99.90;;;;;;5077451;28;40335;-78
2022/05/15 11:46:11;;;;;;;16.27;4.45;;;26.40;99.90;;;;;;5078709;28;39240;-78
2022/05/15 11:48:43;;;;;;;16.33;4.10;;;26.70;99.90;;;;;;5083213;27;47267;-79
2022/05/15 11:51:14;;;;;;;11.18;3.83;;;26.50;99.90;;;;;;5079286;27;37528;-78
2022/05/15 11:53:52;;;;;;;16.35;4.10;;;26.80;99.90;;;;;;5069914;28;39039;-78
2022/05/15 11:56:23;;;;;;;11.85;4.00;;;26.90;99.90;;;;;;5071588;27;41510;-79
2022/05/15 11:58:58;;;;;;;11.87;4.57;;;26.80;99.90;;;;;;5074622;28;38434;-80
2022/05/15 12:01:24;;;;;;;7.95;3.47;;;26.40;99.90;;;;;;5088734;27;37910;-82
2022/05/15 12:03:50;;;;;;;11.90;3.88;;;26.60;99.90;;;;;;5073536;28;39680;-80
2022/05/15 12:06:23;;;;;;;9.30;4.10;;;27.10;99.90;;;;;;5067509;28;40144;-80
2022/05/15 12:09:18;;;;;;;13.20;4.25;;;27.00;99.90;;;;;;5068181;28;38864;-80
2022/05/15 12:11:46;;;;;;;10.07;3.60;;;27.00;99.90;;;;;;5068810;28;48297;-79
2022/05/15 12:14:29;;;;;;;11.90;3.78;;;27.10;99.90;;;;;;5065047;28;41013;-79
2022/05/15 12:17:22;;;;;;;9.07;3.88;;;27.30;99.90;;;;;;5069807;27;38475;-80
2022/05/15 12:19:50;;;;;;;10.93;3.90;;;27.10;99.90;;;;;;5071722;27;48411;-78
2022/05/15 12:22:17;;;;;;;11.02;3.78;;;27.10;99.90;;;;;;5069721;28;37310;-78
2022/05/15 12:24:48;;;;;;;10.20;3.78;;;27.20;99.90;;;;;;5082486;27;39307;-79
2022/05/15 12:27:19;;;;;;;9.93;3.57;;;27.30;99.90;;;;;;5066402;28;37362;-77
2022/05/15 12:30:08;;;;;;;8.82;3.67;;;27.30;99.90;;;;;;5068864;27;38674;-78
2022/05/15 12:32:41;;;;;;;16.08;4.63;;;27.30;99.90;;;;;;5069077;28;48920;-78
2022/05/15 12:35:23;;;;;;;10.52;3.88;;;27.00;99.90;;;;;;5077659;27;39623;-77
2022/05/15 12:37:55;;;;;;;;;;;27.10;99.90;;;;;;5074218;28;37513;-78
2022/05/15 12:40:26;;;;;;;10.45;3.17;;;26.80;99.90;;;;;;5073522;28;39201;-78
2022/05/15 12:42:53;;;;;;;;;;;27.40;99.90;;;;;;5076960;28;37548;-78
2022/05/15 12:45:21;;;;;;;10.80;3.38;;;27.40;99.90;;;;;;5079393;28;38582;-78
2022/05/15 12:48:08;;;;;;;9.75;4.45;;;27.30;99.90;;;;;;5075921;28;36734;-78
2022/05/15 12:50:56;;;;;;;11.52;3.78;;;27.80;99.90;;;;;;5079807;28;47548;-78
2022/05/15 12:53:32;;;;;;;7.22;3.13;;;27.30;99.90;;;;;;5067734;27;38395;-78
2022/05/15 12:56:16;;;;;;;8.65;3.25;;;26.90;99.90;;;;;;5076931;28;38861;-77
2022/05/15 12:58:49;;;;;;;10.30;3.70;;;27.40;99.90;;;;;;5073038;27;48870;-78
2022/05/15 13:01:16;;;;;;;13.43;3.78;;;27.90;99.90;;;;;;5079333;27;37817;-79
2022/05/15 13:03:53;;;;;;;9.13;2.75;;;27.90;99.90;;;;;;5071040;27;36900;-79
2022/05/15 13:06:25;;;;;;;11.27;4.28;;;27.90;99.90;;;;;;5075788;28;38829;-79
2022/05/15 13:08:54;;;;;;;11.00;3.80;;;27.40;99.90;;;;;;5071852;28;38987;-80
2022/05/15 13:11:24;;;;;;;8.00;3.55;;;27.30;99.90;;;;;;5082729;28;37516;-79
2022/05/15 13:13:54;;;;;;;12.95;3.70;;;27.30;99.90;;;;;;5082073;28;36423;-79
2022/05/15 13:16:23;;;;;;;10.10;4.28;;;27.10;99.90;;;;;;5073843;27;37738;-80